sensor_id;sensor_type;location;lat;lon;timestamp;pressure;altitude;pressure_sealevel;temperature;humidity
64078;BME280;51039;49.696;10.808;2023-04-21T00:02:03;98061.53;;;8.19;93.27
64078;BME280;51039;49.696;10.808;2023-04-21T00:04:28;98059.72;;;8.19;93.17
64078;BME280;51039;49.696;10.808;2023-04-21T00:06:54;98067.00;;;8.17;93.41
64078;BME280;51039;49.696;10.808;2023-04-21T00:09:20;98056.84;;;8.14;93.35
64078;BME280;51039;49.696;10.808;2023-04-21T00:11:46;98060.13;;;8.16;93.31
64078;BME280;51039;49.696;10.808;2023-04-21T00:14:11;98056.25;;;8.12;94.05
64078;BME280;51039;49.696;10.808;2023-04-21T00:16:36;98067.53;;;8.06;94.65
64078;BME280;51039;49.696;10.808;2023-04-21T00:19:02;98067.59;;;8.13;93.94
64078;BME280;51039;49.696;10.808;2023-04-21T00:21:30;98062.25;;;8.06;94.33
64078;BME280;51039;49.696;10.808;2023-04-21T00:23:59;98059.63;;;8.06;94.21
64078;BME280;51039;49.696;10.808;2023-04-21T00:26:24;98058.19;;;7.97;94.50
64078;BME280;51039;49.696;10.808;2023-04-21T00:28:50;98052.25;;;7.95;94.78
64078;BME280;51039;49.696;10.808;2023-04-21T00:31:15;98049.84;;;8.00;94.45
64078;BME280;51039;49.696;10.808;2023-04-21T00:33:41;98044.13;;;7.90;94.91
64078;BME280;51039;49.696;10.808;2023-04-21T00:36:06;98040.09;;;7.94;94.93
64078;BME280;51039;49.696;10.808;2023-04-21T00:38:31;98033.38;;;7.91;95.09
64078;BME280;51039;49.696;10.808;2023-04-21T00:40:57;98042.91;;;7.92;94.96
64078;BME280;51039;49.696;10.808;2023-04-21T00:43:22;98035.19;;;7.91;95.11
64078;BME280;51039;49.696;10.808;2023-04-21T00:45:49;98027.19;;;7.77;95.83
64078;BME280;51039;49.696;10.808;2023-04-21T00:48:15;98020.84;;;7.65;96.90
64078;BME280;51039;49.696;10.808;2023-04-21T00:50:40;98020.78;;;7.58;97.90
64078;BME280;51039;49.696;10.808;2023-04-21T00:53:07;98017.09;;;7.53;97.72
64078;BME280;51039;49.696;10.808;2023-04-21T00:55:33;98007.31;;;7.46;98.17
64078;BME280;51039;49.696;10.808;2023-04-21T00:57:59;98013.34;;;7.40;98.60
64078;BME280;51039;49.696;10.808;2023-04-21T01:00:26;98012.09;;;7.36;98.87
64078;BME280;51039;49.696;10.808;2023-04-21T01:02:51;98012.09;;;7.36;98.89
64078;BME280;51039;49.696;10.808;2023-04-21T01:05:17;98019.63;;;7.39;97.90
64078;BME280;51039;49.696;10.808;2023-04-21T01:07:43;98016.78;;;7.41;97.69
64078;BME280;51039;49.696;10.808;2023-04-21T01:10:09;98010.50;;;7.35;97.91
64078;BME280;51039;49.696;10.808;2023-04-21T01:12:44;98016.94;;;7.33;97.74
64078;BME280;51039;49.696;10.808;2023-04-21T01:15:11;98020.59;;;7.32;97.81
64078;BME280;51039;49.696;10.808;2023-04-21T01:17:37;98017.25;;;7.23;97.63
64078;BME280;51039;49.696;10.808;2023-04-21T01:20:06;98021.91;;;7.21;98.27
64078;BME280;51039;49.696;10.808;2023-04-21T01:22:34;98028.22;;;7.26;97.80
64078;BME280;51039;49.696;10.808;2023-04-21T01:25:01;98025.41;;;7.28;97.60
64078;BME280;51039;49.696;10.808;2023-04-21T01:27:27;98021.31;;;7.25;97.49
64078;BME280;51039;49.696;10.808;2023-04-21T01:29:52;98021.31;;;7.25;97.86
64078;BME280;51039;49.696;10.808;2023-04-21T01:32:19;98014.75;;;7.15;97.42
64078;BME280;51039;49.696;10.808;2023-04-21T01:34:47;98025.84;;;7.10;97.31
64078;BME280;51039;49.696;10.808;2023-04-21T01:37:14;98036.34;;;7.03;97.62
64078;BME280;51039;49.696;10.808;2023-04-21T01:39:44;98029.81;;;6.99;97.83
64078;BME280;51039;49.696;10.808;2023-04-21T01:42:11;98038.03;;;6.90;98.82
64078;BME280;51039;49.696;10.808;2023-04-21T01:44:37;98045.66;;;6.84;98.98
64078;BME280;51039;49.696;10.808;2023-04-21T01:47:03;98044.41;;;6.80;99.73
64078;BME280;51039;49.696;10.808;2023-04-21T01:49:29;98048.78;;;6.73;100.00
64078;BME280;51039;49.696;10.808;2023-04-21T01:51:55;98053.84;;;6.75;100.00
64078;BME280;51039;49.696;10.808;2023-04-21T01:54:20;98045.16;;;6.74;100.00
64078;BME280;51039;49.696;10.808;2023-04-21T01:56:45;98046.88;;;6.67;100.00
64078;BME280;51039;49.696;10.808;2023-04-21T01:59:11;98045.69;;;6.69;100.00
64078;BME280;51039;49.696;10.808;2023-04-21T02:01:36;98045.91;;;6.68;100.00
64078;BME280;51039;49.696;10.808;2023-04-21T02:04:02;98045.06;;;6.67;100.00
64078;BME280;51039;49.696;10.808;2023-04-21T02:06:28;98046.69;;;6.68;100.00
64078;BME280;51039;49.696;10.808;2023-04-21T02:08:55;98047.44;;;6.62;100.00
64078;BME280;51039;49.696;10.808;2023-04-21T02:11:21;98041.78;;;6.65;100.00
64078;BME280;51039;49.696;10.808;2023-04-21T02:13:48;98043.56;;;6.58;100.00
64078;BME280;51039;49.696;10.808;2023-04-21T02:16:14;98040.47;;;6.55;100.00
64078;BME280;51039;49.696;10.808;2023-04-21T02:18:39;98039.00;;;6.52;100.00
64078;BME280;51039;49.696;10.808;2023-04-21T02:21:05;98046.03;;;6.45;100.00
64078;BME280;51039;49.696;10.808;2023-04-21T02:23:31;98042.31;;;6.39;100.00
64078;BME280;51039;49.696;10.808;2023-04-21T02:25:56;98039.25;;;6.36;100.00
64078;BME280;51039;49.696;10.808;2023-04-21T02:28:21;98038.59;;;6.34;100.00
64078;BME280;51039;49.696;10.808;2023-04-21T02:30:47;98039.34;;;6.27;100.00
64078;BME280;51039;49.696;10.808;2023-04-21T02:33:12;98038.88;;;6.24;100.00
64078;BME280;51039;49.696;10.808;2023-04-21T02:35:38;98044.78;;;6.11;100.00
64078;BME280;51039;49.696;10.808;2023-04-21T02:38:03;98046.25;;;5.99;100.00
64078;BME280;51039;49.696;10.808;2023-04-21T02:40:31;98031.78;;;5.95;100.00
64078;BME280;51039;49.696;10.808;2023-04-21T02:42:56;98030.31;;;5.92;100.00
64078;BME280;51039;49.696;10.808;2023-04-21T02:45:21;98027.22;;;5.97;100.00
64078;BME280;51039;49.696;10.808;2023-04-21T02:47:47;98023.88;;;5.95;100.00
64078;BME280;51039;49.696;10.808;2023-04-21T02:50:12;98027.69;;;5.92;100.00
64078;BME280;51039;49.696;10.808;2023-04-21T02:52:38;98017.09;;;5.85;100.00
64078;BME280;51039;49.696;10.808;2023-04-21T02:55:03;98025.50;;;5.81;100.00
64078;BME280;51039;49.696;10.808;2023-04-21T02:57:29;98024.41;;;5.75;100.00
64078;BME280;51039;49.696;10.808;2023-04-21T02:59:54;98022.34;;;5.70;100.00
64078;BME280;51039;49.696;10.808;2023-04-21T03:02:20;98024.97;;;5.70;100.00
64078;BME280;51039;49.696;10.808;2023-04-21T03:04:45;98020.97;;;5.60;100.00
64078;BME280;51039;49.696;10.808;2023-04-21T03:07:11;98027.22;;;5.59;100.00
64078;BME280;51039;49.696;10.808;2023-04-21T03:09:37;98025.13;;;5.54;100.00
64078;BME280;51039;49.696;10.808;2023-04-21T03:12:03;98018.50;;;5.43;100.00
64078;BME280;51039;49.696;10.808;2023-04-21T03:14:28;98019.94;;;5.46;100.00
64078;BME280;51039;49.696;10.808;2023-04-21T03:16:54;98025.00;;;5.32;100.00
64078;BME280;51039;49.696;10.808;2023-04-21T03:19:19;98026.63;;;5.34;100.00
64078;BME280;51039;49.696;10.808;2023-04-21T03:21:44;98033.41;;;5.28;100.00
64078;BME280;51039;49.696;10.808;2023-04-21T03:24:10;98028.50;;;5.25;100.00
64078;BME280;51039;49.696;10.808;2023-04-21T03:26:37;98030.41;;;5.31;100.00
64078;BME280;51039;49.696;10.808;2023-04-21T03:29:05;98022.25;;;5.26;100.00
64078;BME280;51039;49.696;10.808;2023-04-21T03:31:30;98028.31;;;5.26;100.00
64078;BME280;51039;49.696;10.808;2023-04-21T03:33:56;98027.84;;;5.23;100.00
64078;BME280;51039;49.696;10.808;2023-04-21T03:36:21;98025.13;;;5.16;100.00
64078;BME280;51039;49.696;10.808;2023-04-21T03:38:47;98029.09;;;5.12;100.00
64078;BME280;51039;49.696;10.808;2023-04-21T03:41:12;98023.56;;;5.07;100.00
64078;BME280;51039;49.696;10.808;2023-04-21T03:43:37;98027.38;;;5.04;100.00
64078;BME280;51039;49.696;10.808;2023-04-21T03:46:03;98029.03;;;4.97;100.00
64078;BME280;51039;49.696;10.808;2023-04-21T03:48:28;98025.94;;;4.94;100.00
64078;BME280;51039;49.696;10.808;2023-04-21T03:50:53;98025.84;;;4.87;100.00
64078;BME280;51039;49.696;10.808;2023-04-21T03:53:19;98030.63;;;4.83;100.00
64078;BME280;51039;49.696;10.808;2023-04-21T03:55:44;98027.47;;;4.88;100.00
64078;BME280;51039;49.696;10.808;2023-04-21T03:58:13;98031.91;;;4.87;100.00
64078;BME280;51039;49.696;10.808;2023-04-21T04:00:39;98032.88;;;4.86;100.00
64078;BME280;51039;49.696;10.808;2023-04-21T04:03:04;98035.00;;;4.91;100.00
64078;BME280;51039;49.696;10.808;2023-04-21T04:05:31;98034.34;;;4.89;100.00
64078;BME280;51039;49.696;10.808;2023-04-21T04:07:59;98032.78;;;4.80;100.00
64078;BME280;51039;49.696;10.808;2023-04-21T04:10:24;98022.91;;;4.82;100.00
64078;BME280;51039;49.696;10.808;2023-04-21T04:12:49;98027.84;;;4.77;100.00
64078;BME280;51039;49.696;10.808;2023-04-21T04:15:15;98027.84;;;4.77;100.00
64078;BME280;51039;49.696;10.808;2023-04-21T04:17:40;98028.97;;;4.82;100.00
64078;BME280;51039;49.696;10.808;2023-04-21T04:20:06;98035.41;;;4.80;100.00
64078;BME280;51039;49.696;10.808;2023-04-21T04:22:32;98039.13;;;4.85;100.00
64078;BME280;51039;49.696;10.808;2023-04-21T04:24:58;98037.16;;;4.87;100.00
64078;BME280;51039;49.696;10.808;2023-04-21T04:27:25;98035.16;;;4.89;100.00
64078;BME280;51039;49.696;10.808;2023-04-21T04:29:50;98034.47;;;4.96;100.00
64078;BME280;51039;49.696;10.808;2023-04-21T04:32:17;98041.47;;;5.03;100.00
64078;BME280;51039;49.696;10.808;2023-04-21T04:34:42;98037.03;;;5.04;100.00
64078;BME280;51039;49.696;10.808;2023-04-21T04:37:07;98038.31;;;5.08;100.00
64078;BME280;51039;49.696;10.808;2023-04-21T04:39:35;98027.47;;;5.11;100.00
64078;BME280;51039;49.696;10.808;2023-04-21T04:42:01;98043.91;;;5.28;100.00
64078;BME280;51039;49.696;10.808;2023-04-21T04:44:27;98041.97;;;5.45;100.00
64078;BME280;51039;49.696;10.808;2023-04-21T04:46:53;98044.78;;;5.43;100.00
64078;BME280;51039;49.696;10.808;2023-04-21T04:49:18;98039.84;;;5.40;100.00
64078;BME280;51039;49.696;10.808;2023-04-21T04:51:44;98039.22;;;5.38;100.00
64078;BME280;51039;49.696;10.808;2023-04-21T04:54:09;98035.72;;;5.46;100.00
64078;BME280;51039;49.696;10.808;2023-04-21T04:56:34;98039.50;;;5.43;100.00
64078;BME280;51039;49.696;10.808;2023-04-21T04:59:00;98031.16;;;5.40;100.00
64078;BME280;51039;49.696;10.808;2023-04-21T05:01:25;98037.13;;;5.34;100.00
64078;BME280;51039;49.696;10.808;2023-04-21T05:03:54;98035.16;;;5.36;100.00
64078;BME280;51039;49.696;10.808;2023-04-21T05:06:20;98039.56;;;5.58;100.00
64078;BME280;51039;49.696;10.808;2023-04-21T05:08:45;98048.16;;;5.67;100.00
64078;BME280;51039;49.696;10.808;2023-04-21T05:11:11;98045.94;;;5.94;99.25
64078;BME280;51039;49.696;10.808;2023-04-21T05:13:36;98051.66;;;6.78;95.62
64078;BME280;51039;49.696;10.808;2023-04-21T05:16:01;98050.97;;;7.56;92.10
64078;BME280;51039;49.696;10.808;2023-04-21T05:18:27;98057.16;;;8.81;85.12
64078;BME280;51039;49.696;10.808;2023-04-21T05:20:52;98046.78;;;8.73;82.83
64078;BME280;51039;49.696;10.808;2023-04-21T05:23:17;98044.19;;;8.93;83.02
64078;BME280;51039;49.696;10.808;2023-04-21T05:25:43;98053.38;;;9.23;81.34
64078;BME280;51039;49.696;10.808;2023-04-21T05:28:08;98051.97;;;9.41;80.13
64078;BME280;51039;49.696;10.808;2023-04-21T05:30:33;98052.34;;;9.18;80.86
64078;BME280;51039;49.696;10.808;2023-04-21T05:32:59;98059.06;;;9.07;82.10
64078;BME280;51039;49.696;10.808;2023-04-21T05:35:24;98055.59;;;9.07;81.71
64078;BME280;51039;49.696;10.808;2023-04-21T05:37:50;98048.50;;;9.20;86.32
64078;BME280;51039;49.696;10.808;2023-04-21T05:40:15;98056.25;;;9.69;83.65
64078;BME280;51039;49.696;10.808;2023-04-21T05:42:40;98058.28;;;9.80;82.32
64078;BME280;51039;49.696;10.808;2023-04-21T05:45:06;98051.56;;;9.97;81.46
64078;BME280;51039;49.696;10.808;2023-04-21T05:47:31;98055.78;;;10.18;80.65
64078;BME280;51039;49.696;10.808;2023-04-21T05:49:57;98057.78;;;10.43;80.34
64078;BME280;51039;49.696;10.808;2023-04-21T05:52:22;98051.03;;;10.92;77.87
64078;BME280;51039;49.696;10.808;2023-04-21T05:54:47;98051.84;;;11.25;76.24
64078;BME280;51039;49.696;10.808;2023-04-21T05:57:13;98051.50;;;11.71;73.85
64078;BME280;51039;49.696;10.808;2023-04-21T05:59:38;98050.03;;;12.74;70.60
64078;BME280;51039;49.696;10.808;2023-04-21T06:02:04;98051.84;;;14.76;63.97
64078;BME280;51039;49.696;10.808;2023-04-21T06:04:29;98042.50;;;15.53;58.53
64078;BME280;51039;49.696;10.808;2023-04-21T06:06:54;98048.53;;;14.45;63.70
64078;BME280;51039;49.696;10.808;2023-04-21T06:09:20;98047.88;;;13.67;66.45
64078;BME280;51039;49.696;10.808;2023-04-21T06:11:45;98048.84;;;13.01;68.44
64078;BME280;51039;49.696;10.808;2023-04-21T06:14:10;98044.56;;;11.95;72.39
64078;BME280;51039;49.696;10.808;2023-04-21T06:16:36;98049.59;;;11.53;75.58
64078;BME280;51039;49.696;10.808;2023-04-21T06:19:01;98042.84;;;11.26;77.54
64078;BME280;51039;49.696;10.808;2023-04-21T06:21:26;98052.81;;;10.98;78.99
64078;BME280;51039;49.696;10.808;2023-04-21T06:23:51;98046.72;;;10.98;79.61
64078;BME280;51039;49.696;10.808;2023-04-21T06:26:17;98058.91;;;11.06;79.99
64078;BME280;51039;49.696;10.808;2023-04-21T06:28:42;98054.84;;;11.03;79.03
64078;BME280;51039;49.696;10.808;2023-04-21T06:31:08;98046.47;;;11.38;78.03
64078;BME280;51039;49.696;10.808;2023-04-21T06:33:39;98041.84;;;11.77;76.48
64078;BME280;51039;49.696;10.808;2023-04-21T06:36:04;98036.59;;;14.88;65.23
64078;BME280;51039;49.696;10.808;2023-04-21T06:38:30;98035.69;;;14.83;63.88
64078;BME280;51039;49.696;10.808;2023-04-21T06:40:55;98040.66;;;13.32;69.17
64078;BME280;51039;49.696;10.808;2023-04-21T06:43:20;98047.16;;;12.76;72.52
64078;BME280;51039;49.696;10.808;2023-04-21T06:45:45;98038.69;;;12.30;75.13
64078;BME280;51039;49.696;10.808;2023-04-21T06:48:11;98034.84;;;12.45;75.42
64078;BME280;51039;49.696;10.808;2023-04-21T06:50:36;98045.09;;;12.41;75.52
64078;BME280;51039;49.696;10.808;2023-04-21T06:53:01;98041.31;;;12.49;75.66
64078;BME280;51039;49.696;10.808;2023-04-21T06:55:27;98040.16;;;12.45;75.37
64078;BME280;51039;49.696;10.808;2023-04-21T06:57:52;98041.81;;;13.37;71.94
64078;BME280;51039;49.696;10.808;2023-04-21T07:00:17;98047.06;;;13.55;69.77
64078;BME280;51039;49.696;10.808;2023-04-21T07:02:43;98043.47;;;14.32;66.90
64078;BME280;51039;49.696;10.808;2023-04-21T07:05:08;98047.66;;;15.26;65.09
64078;BME280;51039;49.696;10.808;2023-04-21T07:07:33;98040.69;;;18.32;53.84
64078;BME280;51039;49.696;10.808;2023-04-21T07:09:59;98046.09;;;19.41;51.13
64078;BME280;51039;49.696;10.808;2023-04-21T07:12:24;98043.44;;;19.72;49.84
64078;BME280;51039;49.696;10.808;2023-04-21T07:14:49;98033.25;;;18.44;52.47
64078;BME280;51039;49.696;10.808;2023-04-21T07:17:15;98037.88;;;15.99;57.92
64078;BME280;51039;49.696;10.808;2023-04-21T07:19:40;98041.59;;;14.85;62.30
64078;BME280;51039;49.696;10.808;2023-04-21T07:22:05;98039.84;;;15.36;60.66
64078;BME280;51039;49.696;10.808;2023-04-21T07:24:30;98040.78;;;14.84;62.17
64078;BME280;51039;49.696;10.808;2023-04-21T07:26:58;98038.91;;;16.15;60.16
64078;BME280;51039;49.696;10.808;2023-04-21T07:29:23;98037.78;;;17.91;56.60
64078;BME280;51039;49.696;10.808;2023-04-21T07:31:49;98032.97;;;19.81;48.56
64078;BME280;51039;49.696;10.808;2023-04-21T07:34:15;98028.13;;;19.68;48.74
64078;BME280;51039;49.696;10.808;2023-04-21T07:36:41;98038.31;;;19.35;48.51
64078;BME280;51039;49.696;10.808;2023-04-21T07:39:06;98043.13;;;19.38;47.68
64078;BME280;51039;49.696;10.808;2023-04-21T07:41:32;98036.13;;;19.01;49.33
64078;BME280;51039;49.696;10.808;2023-04-21T07:43:58;98035.66;;;17.29;52.89
64078;BME280;51039;49.696;10.808;2023-04-21T07:46:23;98037.66;;;17.43;52.58
64078;BME280;51039;49.696;10.808;2023-04-21T07:48:54;98032.28;;;18.13;51.57
64078;BME280;51039;49.696;10.808;2023-04-21T07:51:20;98029.16;;;18.32;51.15
64078;BME280;51039;49.696;10.808;2023-04-21T07:53:46;98027.63;;;17.98;51.70
64078;BME280;51039;49.696;10.808;2023-04-21T07:56:11;98030.03;;;18.48;50.08
64078;BME280;51039;49.696;10.808;2023-04-21T07:58:36;98031.84;;;19.20;48.38
64078;BME280;51039;49.696;10.808;2023-04-21T08:01:02;98026.34;;;18.64;50.02
64078;BME280;51039;49.696;10.808;2023-04-21T08:03:27;98027.59;;;19.25;48.33
64078;BME280;51039;49.696;10.808;2023-04-21T08:05:53;98026.94;;;18.81;48.73
64078;BME280;51039;49.696;10.808;2023-04-21T08:08:18;98027.22;;;16.87;54.11
64078;BME280;51039;49.696;10.808;2023-04-21T08:10:45;98029.22;;;15.58;57.90
64078;BME280;51039;49.696;10.808;2023-04-21T08:13:11;98033.66;;;15.36;58.99
64078;BME280;51039;49.696;10.808;2023-04-21T08:15:36;98027.91;;;15.10;60.13
64078;BME280;51039;49.696;10.808;2023-04-21T08:18:01;98032.72;;;15.93;58.40
64078;BME280;51039;49.696;10.808;2023-04-21T08:20:27;98021.50;;;16.57;55.95
64078;BME280;51039;49.696;10.808;2023-04-21T08:22:52;98024.28;;;18.23;50.78
64078;BME280;51039;49.696;10.808;2023-04-21T08:25:18;98022.44;;;18.92;48.71
64078;BME280;51039;49.696;10.808;2023-04-21T08:27:43;98017.75;;;18.72;48.98
64078;BME280;51039;49.696;10.808;2023-04-21T08:30:08;98022.91;;;18.84;48.87
64078;BME280;51039;49.696;10.808;2023-04-21T08:32:34;98017.50;;;17.68;52.27
64078;BME280;51039;49.696;10.808;2023-04-21T08:35:00;98030.34;;;17.01;54.00
64078;BME280;51039;49.696;10.808;2023-04-21T08:37:25;98025.47;;;17.25;53.70
64078;BME280;51039;49.696;10.808;2023-04-21T08:39:50;98013.59;;;18.29;50.66
64078;BME280;51039;49.696;10.808;2023-04-21T08:42:17;98015.44;;;18.23;50.82
64078;BME280;51039;49.696;10.808;2023-04-21T08:44:43;98025.34;;;17.42;52.42
64078;BME280;51039;49.696;10.808;2023-04-21T08:47:09;98016.78;;;17.13;53.53
64078;BME280;51039;49.696;10.808;2023-04-21T08:49:36;98016.22;;;17.38;53.32
64078;BME280;51039;49.696;10.808;2023-04-21T08:52:02;98014.13;;;19.09;47.06
64078;BME280;51039;49.696;10.808;2023-04-21T08:54:28;98018.06;;;20.35;44.52
64078;BME280;51039;49.696;10.808;2023-04-21T08:56:53;98014.84;;;20.88;43.20
64078;BME280;51039;49.696;10.808;2023-04-21T08:59:18;98017.72;;;21.41;40.88
64078;BME280;51039;49.696;10.808;2023-04-21T09:04:53;98011.25;;;23.82;36.43
64078;BME280;51039;49.696;10.808;2023-04-21T09:09:56;98024.47;;;22.93;37.86
64078;BME280;51039;49.696;10.808;2023-04-21T09:12:24;98025.69;;;22.15;38.71
64078;BME280;51039;49.696;10.808;2023-04-21T09:14:49;98015.84;;;21.76;40.78
64078;BME280;51039;49.696;10.808;2023-04-21T09:17:16;98021.09;;;20.83;41.50
64078;BME280;51039;49.696;10.808;2023-04-21T09:19:42;98028.28;;;20.33;42.97
64078;BME280;51039;49.696;10.808;2023-04-21T09:22:07;98024.81;;;20.22;43.65
64078;BME280;51039;49.696;10.808;2023-04-21T09:24:33;98010.69;;;20.61;42.53
64078;BME280;51039;49.696;10.808;2023-04-21T09:26:58;98009.28;;;22.11;39.84
64078;BME280;51039;49.696;10.808;2023-04-21T09:29:28;98006.09;;;21.51;40.47
64078;BME280;51039;49.696;10.808;2023-04-21T09:31:54;98003.13;;;21.13;41.42
64078;BME280;51039;49.696;10.808;2023-04-21T09:34:20;97999.66;;;21.76;40.94
64078;BME280;51039;49.696;10.808;2023-04-21T09:36:50;97995.38;;;22.47;38.69
64078;BME280;51039;49.696;10.808;2023-04-21T09:39:24;97991.09;;;22.46;38.51
64078;BME280;51039;49.696;10.808;2023-04-21T09:41:49;97992.94;;;22.70;38.60
64078;BME280;51039;49.696;10.808;2023-04-21T09:44:14;97994.13;;;22.64;36.90
64078;BME280;51039;49.696;10.808;2023-04-21T09:46:41;97989.75;;;21.37;39.23
64078;BME280;51039;49.696;10.808;2023-04-21T09:49:08;97992.31;;;21.18;40.33
64078;BME280;51039;49.696;10.808;2023-04-21T09:51:35;97986.22;;;21.71;39.62
64078;BME280;51039;49.696;10.808;2023-04-21T09:54:03;97987.88;;;22.20;39.29
64078;BME280;51039;49.696;10.808;2023-04-21T09:56:36;97989.56;;;20.89;40.75
64078;BME280;51039;49.696;10.808;2023-04-21T09:59:05;97983.47;;;21.12;40.30
64078;BME280;51039;49.696;10.808;2023-04-21T10:01:31;97985.81;;;21.59;38.79
64078;BME280;51039;49.696;10.808;2023-04-21T10:03:59;97986.66;;;22.07;38.61
64078;BME280;51039;49.696;10.808;2023-04-21T10:06:25;97992.78;;;22.99;37.01
64078;BME280;51039;49.696;10.808;2023-04-21T10:08:51;97983.06;;;21.64;38.58
64078;BME280;51039;49.696;10.808;2023-04-21T10:11:21;97985.00;;;21.24;39.87
64078;BME280;51039;49.696;10.808;2023-04-21T10:13:48;97984.59;;;21.06;40.64
64078;BME280;51039;49.696;10.808;2023-04-21T10:16:15;97981.41;;;20.99;40.53
64078;BME280;51039;49.696;10.808;2023-04-21T10:18:42;97974.00;;;21.54;39.27
64078;BME280;51039;49.696;10.808;2023-04-21T10:21:09;97974.91;;;21.69;39.98
64078;BME280;51039;49.696;10.808;2023-04-21T10:26:08;97977.09;;;22.63;38.28
64078;BME280;51039;49.696;10.808;2023-04-21T10:31:32;97974.06;;;19.90;41.24
64078;BME280;51039;49.696;10.808;2023-04-21T10:41:54;97962.34;;;19.19;43.63
64078;BME280;51039;49.696;10.808;2023-04-21T10:44:22;97952.09;;;19.47;43.29
64078;BME280;51039;49.696;10.808;2023-04-21T10:46:49;97956.16;;;19.29;43.96
64078;BME280;51039;49.696;10.808;2023-04-21T10:49:22;97959.34;;;18.85;44.77
64078;BME280;51039;49.696;10.808;2023-04-21T10:54:24;97954.53;;;19.43;43.80
64078;BME280;51039;49.696;10.808;2023-04-21T10:56:51;97939.25;;;20.29;41.31
64078;BME280;51039;49.696;10.808;2023-04-21T10:59:18;97940.06;;;20.30;41.58
64078;BME280;51039;49.696;10.808;2023-04-21T11:01:44;97931.06;;;20.60;40.39
64078;BME280;51039;49.696;10.808;2023-04-21T11:04:13;97934.19;;;20.77;40.45
64078;BME280;51039;49.696;10.808;2023-04-21T11:06:39;97932.66;;;20.56;40.22
64078;BME280;51039;49.696;10.808;2023-04-21T11:09:05;97927.00;;;20.63;40.44
64078;BME280;51039;49.696;10.808;2023-04-21T11:11:30;97913.41;;;20.33;40.98
64078;BME280;51039;49.696;10.808;2023-04-21T11:13:58;97919.44;;;20.65;41.44
64078;BME280;51039;49.696;10.808;2023-04-21T11:16:24;97921.94;;;21.25;39.54
64078;BME280;51039;49.696;10.808;2023-04-21T11:18:49;97924.59;;;21.30;38.86
64078;BME280;51039;49.696;10.808;2023-04-21T11:21:17;97921.75;;;20.82;40.67
64078;BME280;51039;49.696;10.808;2023-04-21T11:26:14;97916.34;;;20.42;41.59
64078;BME280;51039;49.696;10.808;2023-04-21T11:28:40;97907.63;;;21.00;41.19
64078;BME280;51039;49.696;10.808;2023-04-21T11:31:05;97906.00;;;21.63;39.95
64078;BME280;51039;49.696;10.808;2023-04-21T11:33:34;97915.09;;;21.08;39.33
64078;BME280;51039;49.696;10.808;2023-04-21T11:36:20;97904.06;;;21.39;39.11
64078;BME280;51039;49.696;10.808;2023-04-21T11:38:46;97906.53;;;21.01;39.76
64078;BME280;51039;49.696;10.808;2023-04-21T11:41:12;97896.69;;;20.42;39.79
64078;BME280;51039;49.696;10.808;2023-04-21T11:43:46;97898.31;;;20.87;39.70
64078;BME280;51039;49.696;10.808;2023-04-21T11:46:32;97893.47;;;20.39;40.59
64078;BME280;51039;49.696;10.808;2023-04-21T11:49:05;97893.75;;;19.88;41.70
64078;BME280;51039;49.696;10.808;2023-04-21T11:51:43;97896.84;;;20.16;40.75
64078;BME280;51039;49.696;10.808;2023-04-21T11:54:11;97890.00;;;19.74;40.94
64078;BME280;51039;49.696;10.808;2023-04-21T11:56:39;97891.13;;;19.57;40.57
64078;BME280;51039;49.696;10.808;2023-04-21T11:59:09;97894.34;;;19.59;41.35
64078;BME280;51039;49.696;10.808;2023-04-21T12:01:41;97889.53;;;19.41;42.03
64078;BME280;51039;49.696;10.808;2023-04-21T12:04:14;97888.25;;;20.14;42.15
64078;BME280;51039;49.696;10.808;2023-04-21T12:06:43;97886.66;;;20.57;40.40
64078;BME280;51039;49.696;10.808;2023-04-21T12:09:15;97879.22;;;19.84;41.37
64078;BME280;51039;49.696;10.808;2023-04-21T12:11:45;97890.47;;;19.91;40.94
64078;BME280;51039;49.696;10.808;2023-04-21T12:14:13;97876.44;;;20.10;40.42
64078;BME280;51039;49.696;10.808;2023-04-21T12:16:39;97879.59;;;20.22;40.38
64078;BME280;51039;49.696;10.808;2023-04-21T12:19:04;97879.03;;;20.25;40.75
64078;BME280;51039;49.696;10.808;2023-04-21T12:21:30;97867.94;;;20.37;40.98
64078;BME280;51039;49.696;10.808;2023-04-21T12:23:55;97869.31;;;20.34;40.82
64078;BME280;51039;49.696;10.808;2023-04-21T12:26:21;97880.91;;;20.74;41.51
64078;BME280;51039;49.696;10.808;2023-04-21T12:28:48;97867.13;;;20.81;39.90
64078;BME280;51039;49.696;10.808;2023-04-21T12:31:14;97872.69;;;20.55;40.59
64078;BME280;51039;49.696;10.808;2023-04-21T12:33:39;97865.13;;;20.92;39.62
64078;BME280;51039;49.696;10.808;2023-04-21T12:36:05;97867.75;;;20.73;40.42
64078;BME280;51039;49.696;10.808;2023-04-21T12:38:31;97856.97;;;20.73;40.07
64078;BME280;51039;49.696;10.808;2023-04-21T12:40:56;97857.97;;;20.43;39.91
64078;BME280;51039;49.696;10.808;2023-04-21T12:43:21;97848.25;;;20.47;39.78
64078;BME280;51039;49.696;10.808;2023-04-21T12:45:47;97845.22;;;20.14;39.74
64078;BME280;51039;49.696;10.808;2023-04-21T12:48:14;97856.00;;;20.09;39.13
64078;BME280;51039;49.696;10.808;2023-04-21T12:50:39;97853.19;;;19.69;40.43
64078;BME280;51039;49.696;10.808;2023-04-21T12:53:04;97855.84;;;19.85;40.40
64078;BME280;51039;49.696;10.808;2023-04-21T12:55:30;97850.78;;;20.28;39.49
64078;BME280;51039;49.696;10.808;2023-04-21T12:57:55;97851.41;;;20.14;38.97
64078;BME280;51039;49.696;10.808;2023-04-21T13:00:20;97849.19;;;20.66;37.91
64078;BME280;51039;49.696;10.808;2023-04-21T13:02:46;97845.56;;;20.42;38.72
64078;BME280;51039;49.696;10.808;2023-04-21T13:05:11;97847.28;;;20.32;39.42
64078;BME280;51039;49.696;10.808;2023-04-21T13:07:37;97833.84;;;20.27;39.54
64078;BME280;51039;49.696;10.808;2023-04-21T13:10:03;97843.59;;;20.57;38.46
64078;BME280;51039;49.696;10.808;2023-04-21T13:12:31;97844.03;;;20.75;39.18